createdAt,value
2017-01-02T00:00:21.756Z,440.98
2017-01-02T00:01:21.996Z,438.1
2017-01-02T00:02:21.754Z,439.77
2017-01-02T00:03:21.940Z,440.47
2017-01-02T00:04:21.886Z,440.84
2017-01-02T00:05:21.952Z,437.19
2017-01-02T00:06:21.807Z,435.96
2017-01-02T00:07:21.834Z,436.1
2017-01-02T00:08:21.795Z,436.4
2017-01-02T00:09:21.958Z,435.14
2017-01-02T00:10:21.830Z,431.46
2017-01-02T00:11:21.980Z,435.11
2017-01-02T00:12:21.783Z,433.47
2017-01-02T00:13:21.808Z,435.32
2017-01-02T00:14:21.797Z,436.38
2017-01-02T00:15:21.920Z,436.58
2017-01-02T00:16:21.907Z,439.13
2017-01-02T00:17:21.796Z,439.74
2017-01-02T00:18:21.846Z,440.02
2017-01-02T00:19:21.966Z,438.28
2017-01-02T00:20:21.796Z,441.1
2017-01-02T00:21:21.836Z,439.25
2017-01-02T00:22:21.820Z,440.33
2017-01-02T00:23:21.962Z,439.88
2017-01-02T00:24:21.831Z,439.84
2017-01-02T00:25:21.867Z,439.46
2017-01-02T00:26:21.886Z,441.16
2017-01-02T00:27:21.919Z,437.09
2017-01-02T00:28:21.803Z,435.62
2017-01-02T00:29:21.885Z,434.15
2017-01-02T00:30:21.817Z,431.66
2017-01-02T00:31:21.964Z,433.15
2017-01-02T00:32:22.464Z,432.71
2017-01-02T00:33:21.941Z,430.97
2017-01-02T00:34:21.866Z,427.78
2017-01-02T00:35:21.933Z,426.31
2017-01-02T00:36:21.863Z,428.64
2017-01-02T00:37:21.946Z,429.96
2017-01-02T00:38:21.772Z,428.52
2017-01-02T00:39:21.931Z,429.54
2017-01-02T00:40:21.841Z,425.77
2017-01-02T00:41:21.983Z,424.26
2017-01-02T00:42:21.823Z,424.5
2017-01-02T00:43:21.913Z,425.16
2017-01-02T00:44:21.847Z,421.74
2017-01-02T00:45:21.951Z,423.45
2017-01-02T00:46:21.843Z,421.91
2017-01-02T00:47:21.972Z,418.96
2017-01-02T00:48:21.827Z,416.17
2017-01-02T00:49:21.811Z,417.03
2017-01-02T00:50:21.885Z,419.54
2017-01-02T00:51:22.004Z,420.23
2017-01-02T00:52:21.812Z,417.02
2017-01-02T00:53:21.929Z,418.07
2017-01-02T00:54:21.823Z,418.29
2017-01-02T00:55:21.922Z,415.5
2017-01-02T00:56:21.946Z,415.52
2017-01-02T00:57:21.961Z,415.13
2017-01-02T00:58:21.867Z,413.62
2017-01-02T00:59:21.863Z,411.87
2017-01-02T01:00:21.839Z,414.87
2017-01-02T01:01:21.932Z,411.2
2017-01-02T01:02:21.845Z,409.33
2017-01-02T01:03:21.953Z,413.68
2017-01-02T01:04:21.816Z,415.88
2017-01-02T01:06:40.684Z,414.83
2017-01-02T01:07:40.721Z,415.26
2017-01-02T01:08:40.622Z,412.71
2017-01-02T01:09:40.733Z,408.08
2017-01-02T01:10:40.646Z,407.77
2017-01-02T01:11:40.718Z,409.44
2017-01-02T01:12:40.615Z,406.73
2017-01-02T01:13:40.628Z,406.07
2017-01-02T01:14:40.616Z,402.37
2017-01-02T01:15:40.624Z,406.28
2017-01-02T01:16:40.638Z,406.25
2017-01-02T01:17:40.687Z,405.44
2017-01-02T01:18:40.618Z,403.71
2017-01-02T01:19:40.668Z,403.45
2017-01-02T01:20:40.647Z,403.66
2017-01-02T01:21:40.655Z,404.72
2017-01-02T01:22:40.650Z,404.3
2017-01-02T01:23:40.635Z,404.73
2017-01-02T01:24:40.635Z,404.93
2017-01-02T01:25:40.676Z,402.29
2017-01-02T01:26:40.728Z,402.92
2017-01-02T01:27:40.754Z,399.31
2017-01-02T01:28:40.650Z,400.58
2017-01-02T01:29:40.639Z,398.86
2017-01-02T01:30:40.629Z,400.8
2017-01-02T01:31:40.660Z,403.32
2017-01-02T01:32:40.620Z,403.37
2017-01-02T01:33:40.725Z,404.22
2017-01-02T01:34:40.688Z,401.5
2017-01-02T01:35:40.640Z,400
2017-01-02T01:36:40.661Z,401.57
2017-01-02T01:37:40.706Z,402.27
2017-01-02T01:38:40.627Z,401.25
2017-01-02T01:39:40.785Z,399.29
2017-01-02T01:40:40.636Z,397.73
2017-01-02T01:41:40.657Z,398.68
2017-01-02T01:42:40.672Z,399.03
2017-01-02T01:43:40.716Z,400.14
2017-01-02T01:44:40.635Z,398.91
2017-01-02T01:45:40.715Z,398.44
2017-01-02T01:46:40.675Z,401.26
2017-01-02T01:47:40.678Z,401.67
2017-01-02T01:48:40.694Z,401.87
2017-01-02T01:49:40.796Z,400.16
2017-01-02T01:50:40.646Z,398.45
2017-01-02T01:51:40.697Z,397.39
2017-01-02T01:52:40.665Z,394.95
2017-01-02T01:53:40.672Z,394.37
2017-01-02T01:54:40.653Z,397.19
2017-01-02T01:55:40.776Z,397.44
2017-01-02T01:56:40.673Z,398.5
2017-01-02T01:57:40.721Z,400.03
2017-01-02T01:58:40.666Z,397.71
2017-01-02T01:59:40.714Z,397.04
2017-01-02T02:00:40.667Z,398.58
2017-01-02T02:01:40.844Z,399.94
2017-01-02T02:02:40.666Z,399.25
2017-01-02T02:03:40.678Z,399.09
2017-01-02T02:04:40.645Z,400.38
2017-01-02T02:05:40.753Z,400.86
2017-01-02T02:06:40.687Z,399.53
2017-01-02T02:07:40.677Z,401.29
2017-01-02T02:08:40.651Z,400.14
2017-01-02T02:09:40.767Z,398.02
2017-01-02T02:10:40.682Z,400.59
2017-01-02T02:11:40.745Z,398.69
2017-01-02T02:12:40.663Z,398.49
2017-01-02T02:13:40.806Z,397.19
2017-01-02T02:14:41.535Z,399.39
2017-01-02T02:15:40.684Z,399.25
2017-01-02T02:16:40.682Z,399.86
2017-01-02T02:17:40.835Z,399.04
2017-01-02T02:18:40.683Z,399.92
2017-01-02T02:19:40.834Z,397.03
2017-01-02T02:20:40.765Z,395.3
2017-01-02T02:21:40.774Z,393.77
2017-01-02T02:22:40.659Z,394.19
2017-01-02T02:23:40.821Z,390.33
2017-01-02T02:24:40.709Z,390.5
2017-01-02T02:25:40.689Z,394.2
2017-01-02T02:26:40.735Z,393.09
2017-01-02T02:27:40.737Z,392.59
2017-01-02T02:28:40.683Z,395.52
2017-01-02T02:29:40.782Z,393.94
2017-01-02T02:30:40.683Z,393.77
2017-01-02T02:31:40.774Z,391.42
2017-01-02T02:32:40.695Z,392.06
2017-01-02T02:33:40.814Z,392.51
2017-01-02T02:34:40.716Z,392.29
2017-01-02T02:35:40.711Z,392.72
2017-01-02T02:36:40.797Z,392.32
2017-01-02T02:37:40.713Z,393.82
2017-01-02T02:38:40.711Z,393.68
2017-01-02T02:39:40.764Z,391.62
2017-01-02T02:40:40.695Z,395.15
2017-01-02T02:41:40.819Z,392.35
2017-01-02T02:42:40.702Z,393.69
2017-01-02T02:43:40.772Z,391.12
2017-01-02T02:44:40.692Z,392.85
2017-01-02T02:45:40.812Z,393.97
2017-01-02T02:46:40.722Z,390.76
2017-01-02T02:47:40.843Z,392.28
2017-01-02T02:48:40.732Z,393.52
2017-01-02T02:49:40.752Z,394.42
2017-01-02T02:50:40.762Z,393.07
2017-01-02T02:51:40.852Z,394.4
2017-01-02T02:52:40.712Z,393.74
2017-01-02T02:53:40.801Z,393.97
2017-01-02T02:54:40.748Z,395.52
2017-01-02T02:55:40.861Z,394.81
2017-01-02T02:56:40.751Z,395.04
2017-01-02T02:57:40.733Z,394.67
2017-01-02T02:58:40.731Z,395.76
2017-01-02T02:59:40.890Z,393.36
2017-01-02T03:00:40.741Z,389.91
2017-01-02T03:01:40.771Z,393.34
2017-01-02T03:02:40.740Z,393.3
2017-01-02T03:03:40.772Z,392.03
2017-01-02T03:04:40.772Z,388.31
2017-01-02T03:05:40.791Z,386.08
2017-01-02T03:06:40.783Z,390.66
2017-01-02T03:07:40.810Z,390.85
2017-01-02T03:08:40.781Z,393.1
2017-01-02T03:09:40.769Z,392.17
2017-01-02T03:10:40.751Z,391.33
2017-01-02T03:11:40.781Z,391.14
2017-01-02T03:12:40.762Z,393.8
2017-01-02T03:13:40.812Z,391.12
2017-01-02T03:14:40.726Z,391.32
2017-01-02T03:15:40.860Z,393.53
2017-01-02T03:16:40.783Z,395.09
2017-01-02T03:17:40.847Z,394.64
2017-01-02T03:18:40.763Z,390.97
2017-01-02T03:19:40.799Z,393.82
2017-01-02T03:20:40.751Z,392.76
2017-01-02T03:21:40.862Z,393.06
2017-01-02T03:22:40.750Z,392
2017-01-02T03:23:40.800Z,392.44
2017-01-02T03:24:40.741Z,392.85
2017-01-02T03:25:40.794Z,391.16
2017-01-02T03:26:40.808Z,392.62
2017-01-02T03:27:40.758Z,390.93
2017-01-02T03:28:40.771Z,391.16
2017-01-02T03:29:40.849Z,390.52
2017-01-02T03:30:40.770Z,391.78
2017-01-02T03:31:40.808Z,390.66
2017-01-02T03:32:40.771Z,390
2017-01-02T03:33:40.798Z,389.74
2017-01-02T03:34:40.759Z,392.12
2017-01-02T03:35:40.847Z,391.66
2017-01-02T03:36:40.797Z,391.49
2017-01-02T03:37:40.819Z,392.14
2017-01-02T03:38:40.760Z,391.91
2017-01-02T03:39:40.879Z,390.45
2017-01-02T03:40:40.767Z,390.45
2017-01-02T03:41:40.808Z,388.02
2017-01-02T03:42:40.795Z,386.21
2017-01-02T03:43:40.874Z,387.08
2017-01-02T03:44:40.799Z,386.4
2017-01-02T03:45:40.931Z,388.56
2017-01-02T03:46:40.780Z,387.65
2017-01-02T03:47:40.789Z,389.61
2017-01-02T03:48:40.798Z,389.09
2017-01-02T03:49:40.940Z,388.89
2017-01-02T03:50:40.829Z,389.75
2017-01-02T03:51:40.896Z,389.33
2017-01-02T03:52:40.788Z,387.32
2017-01-02T03:53:40.835Z,388.22
2017-01-02T03:54:40.787Z,389.94
2017-01-02T03:55:40.907Z,390.83
2017-01-02T03:56:40.804Z,389.52
2017-01-02T03:57:40.776Z,388.83
2017-01-02T03:58:40.787Z,387.56
2017-01-02T03:59:40.878Z,388.47
2017-01-02T04:00:40.773Z,389.83
2017-01-02T04:01:40.828Z,388.07
2017-01-02T04:02:40.803Z,389.22
2017-01-02T04:03:40.820Z,386.39
2017-01-02T04:04:40.818Z,386.83
2017-01-02T04:05:40.887Z,390.07
2017-01-02T04:06:40.821Z,388.06
2017-01-02T04:07:40.900Z,389.81
2017-01-02T04:08:40.807Z,391.04
2017-01-02T04:09:40.918Z,390.76
2017-01-02T04:10:40.802Z,391.48
2017-01-02T04:11:40.857Z,392.57
2017-01-02T04:12:40.805Z,391.4
2017-01-02T04:13:40.857Z,390.55
2017-01-02T04:14:40.797Z,391.68
2017-01-02T04:15:40.835Z,390.4
2017-01-02T04:16:40.856Z,387.16
2017-01-02T04:17:40.841Z,390.13
2017-01-02T04:18:40.827Z,389.29
2017-01-02T04:19:40.894Z,389.51
2017-01-02T04:20:40.825Z,384.82
2017-01-02T04:21:40.914Z,386.62
2017-01-02T04:22:40.839Z,390.28
2017-01-02T04:23:40.872Z,389.69
2017-01-02T04:24:40.809Z,389.5
2017-01-02T04:25:40.927Z,390.45
2017-01-02T04:26:40.847Z,390.03
2017-01-02T04:27:40.854Z,388.08
2017-01-02T04:28:40.813Z,390.31
2017-01-02T04:29:40.944Z,392.5
2017-01-02T04:30:40.841Z,390.54
2017-01-02T04:31:40.829Z,391.34
2017-01-02T04:32:40.824Z,388.97
2017-01-02T04:33:40.852Z,390.66
2017-01-02T04:34:40.875Z,392.62
2017-01-02T04:35:40.827Z,392.45
2017-01-02T04:36:40.850Z,393.6
2017-01-02T04:37:50.849Z,392.08
2017-01-02T04:38:40.827Z,391.58
2017-01-02T04:39:40.860Z,393.99
2017-01-02T04:40:40.842Z,393.32
2017-01-02T04:41:40.963Z,391.15
2017-01-02T04:42:40.843Z,390.5
2017-01-02T04:43:40.875Z,392.54
2017-01-02T04:44:40.842Z,395.14
2017-01-02T04:45:40.874Z,394.69
2017-01-02T04:46:40.922Z,392.56
2017-01-02T04:47:40.857Z,392.72
2017-01-02T04:48:40.853Z,389.06
2017-01-02T04:49:40.848Z,389.04
2017-01-02T04:50:40.875Z,389.01
2017-01-02T04:51:40.923Z,389.28
2017-01-02T04:52:40.847Z,390.17
2017-01-02T04:53:40.881Z,392.98
2017-01-02T04:54:40.848Z,393.68
2017-01-02T04:55:40.886Z,393.7
2017-01-02T04:56:40.912Z,389.55
2017-01-02T04:57:40.848Z,393.08
2017-01-02T04:58:40.837Z,390.02
2017-01-02T04:59:40.865Z,390.38
2017-01-02T05:00:40.860Z,390.39
2017-01-02T05:01:40.870Z,390.35
2017-01-02T05:02:40.860Z,392.52
2017-01-02T05:03:40.952Z,391.9
2017-01-02T05:04:40.877Z,391
2017-01-02T05:05:40.980Z,392.4
2017-01-02T05:06:40.909Z,393.01
2017-01-02T05:07:40.978Z,392.38
2017-01-02T05:08:40.895Z,390.84
2017-01-02T05:09:40.880Z,388.76
2017-01-02T05:10:40.876Z,389.19
2017-01-02T05:11:40.905Z,392.48
2017-01-02T05:12:40.871Z,390.78
2017-01-02T05:13:40.914Z,389.27
2017-01-02T05:14:40.882Z,388.51
2017-01-02T05:15:40.907Z,391.17
2017-01-02T05:16:40.900Z,389.21
2017-01-02T05:17:40.983Z,390.74
2017-01-02T05:18:40.899Z,391.01
2017-01-02T05:19:40.933Z,387.93
2017-01-02T05:20:40.887Z,389.25
2017-01-02T05:21:41.015Z,391
2017-01-02T05:22:40.880Z,390.08
2017-01-02T05:27:10.543Z,392.04
2017-01-02T05:28:10.387Z,394.41
2017-01-02T05:29:10.458Z,390.93
2017-01-02T05:30:10.387Z,392.91
2017-01-02T05:31:10.377Z,393.15
2017-01-02T05:32:10.394Z,392.41
2017-01-02T05:33:10.406Z,391.97
2017-01-02T05:34:10.371Z,393.7
2017-01-02T05:35:10.486Z,391.3
2017-01-02T05:36:10.397Z,392.65
2017-01-02T05:37:10.510Z,391.27
2017-01-02T05:38:10.408Z,390.28
2017-01-02T05:39:10.414Z,392.85
2017-01-02T05:40:10.376Z,393.74
2017-01-02T05:41:10.381Z,391.88
2017-01-02T05:42:10.404Z,390.51
2017-01-02T05:43:10.511Z,392.01
2017-01-02T05:44:10.377Z,393.09
2017-01-02T05:45:10.423Z,395.07
2017-01-02T05:46:10.390Z,394.8
2017-01-02T05:47:10.437Z,395.02
2017-01-02T05:48:10.427Z,395.47
2017-01-02T05:49:10.487Z,396.09
2017-01-02T05:50:10.417Z,396.92
2017-01-02T05:51:10.490Z,397.81
2017-01-02T05:52:10.407Z,395.87
2017-01-02T05:53:10.502Z,397.85
2017-01-02T05:54:10.389Z,398.13
2017-01-02T05:55:10.395Z,399.55
2017-01-02T05:56:10.396Z,398.02
2017-01-02T05:57:10.439Z,399.59
2017-01-02T05:58:10.416Z,396.36
2017-01-02T05:59:10.537Z,399.68
2017-01-02T06:00:11.507Z,401.16
2017-01-02T06:01:10.548Z,400.74
2017-01-02T06:02:10.424Z,401.84
2017-01-02T06:03:10.505Z,401.8
2017-01-02T06:04:10.417Z,402.92
2017-01-02T06:05:10.495Z,401.45
2017-01-02T06:06:10.428Z,400.58
2017-01-02T06:07:10.440Z,401.05
2017-01-02T06:08:10.423Z,404.07
2017-01-02T06:09:10.503Z,404.95
2017-01-02T06:10:10.412Z,406.5
2017-01-02T06:11:10.492Z,403.24
2017-01-02T06:12:10.481Z,405.63
2017-01-02T06:13:10.535Z,404.89
2017-01-02T06:14:10.414Z,406.02
2017-01-02T06:15:10.467Z,405.14
2017-01-02T06:16:10.437Z,405.8
2017-01-02T06:17:10.480Z,405.98
2017-01-02T06:18:10.437Z,406.19
2017-01-02T06:19:10.584Z,405.06
2017-01-02T06:20:10.414Z,406.81
2017-01-02T06:21:10.470Z,407.1
2017-01-02T06:22:10.458Z,406.45
2017-01-02T06:23:10.447Z,407.94
2017-01-02T06:24:10.464Z,410.32
2017-01-02T06:25:10.524Z,408.05
2017-01-02T06:26:10.445Z,408.01
2017-01-02T06:27:10.474Z,408.92
2017-01-02T06:28:10.434Z,409.38
2017-01-02T06:29:10.527Z,406.12
2017-01-02T06:30:10.462Z,407.6
2017-01-02T06:31:10.455Z,406.59
2017-01-02T06:32:10.463Z,407.04
2017-01-02T06:33:10.532Z,407.71
2017-01-02T06:34:10.454Z,405.35
2017-01-02T06:35:10.484Z,407.99
2017-01-02T06:36:10.454Z,407.6
2017-01-02T06:37:10.647Z,409.12
2017-01-02T06:38:10.448Z,410.97
2017-01-02T06:39:10.533Z,412.73
2017-01-02T06:40:10.522Z,414.44
2017-01-02T06:41:10.502Z,413.61
2017-01-02T06:42:10.496Z,415.06
2017-01-02T06:43:10.473Z,415.96
2017-01-02T06:44:10.452Z,414.83
2017-01-02T06:45:10.521Z,414.39
2017-01-02T06:46:10.464Z,415.48
2017-01-02T06:47:10.633Z,411.56
2017-01-02T06:48:10.476Z,412.47
2017-01-02T06:49:10.602Z,413.71
2017-01-02T06:50:10.507Z,410.13
2017-01-02T06:51:10.532Z,414.24
2017-01-02T06:52:10.505Z,414.02
2017-01-02T06:53:10.687Z,413
2017-01-02T06:54:10.478Z,416.05
2017-01-02T06:55:10.460Z,416.87
2017-01-02T06:56:10.463Z,416.44
2017-01-02T06:57:10.652Z,412.16
2017-01-02T06:58:10.493Z,409.13
2017-01-02T06:59:10.508Z,411.72
2017-01-02T07:00:10.473Z,413.23
2017-01-02T07:01:10.660Z,414.51
2017-01-02T07:02:10.542Z,414.67
2017-01-02T07:03:10.468Z,413.34
2017-01-02T07:04:10.468Z,412.93
2017-01-02T07:05:10.501Z,414.17
2017-01-02T07:06:10.484Z,415
2017-01-02T07:07:10.511Z,415.05
2017-01-02T07:08:10.491Z,415.48
2017-01-02T07:09:10.652Z,413.1
2017-01-02T07:10:10.515Z,409.86
2017-01-02T07:11:10.612Z,412.69
2017-01-02T07:12:10.490Z,415.11
2017-01-02T07:13:10.549Z,411.71
2017-01-02T07:14:10.543Z,414.19
2017-01-02T07:15:10.641Z,413.11
2017-01-02T07:16:10.528Z,415.31
2017-01-02T07:17:10.648Z,411.06
2017-01-02T07:18:10.509Z,413.84
2017-01-02T07:19:10.592Z,415.83
2017-01-02T07:20:10.541Z,416.05
2017-01-02T07:21:10.612Z,415.67
2017-01-02T07:22:10.617Z,414.68
2017-01-02T07:23:10.533Z,417.11
2017-01-02T07:24:10.532Z,419.31
2017-01-02T07:25:10.580Z,416.51
2017-01-02T07:26:10.516Z,417.86
2017-01-02T07:27:10.627Z,419.76
2017-01-02T07:28:10.507Z,416.7
2017-01-02T07:29:10.520Z,418.89
2017-01-02T07:30:10.520Z,420.87
2017-01-02T07:31:10.517Z,420.48
2017-01-02T07:32:10.516Z,419.85
2017-01-02T07:33:10.619Z,417.45
2017-01-02T07:34:10.530Z,420.63
2017-01-02T07:35:10.608Z,416.8
2017-01-02T07:36:10.510Z,417.46
2017-01-02T07:37:10.572Z,420.49
2017-01-02T07:38:10.529Z,420.94
2017-01-02T07:39:10.520Z,420.52
2017-01-02T07:40:10.540Z,423.14
2017-01-02T07:41:10.539Z,422.14
2017-01-02T07:42:10.538Z,420.71
2017-01-02T07:43:10.644Z,422.23
2017-01-02T07:44:10.548Z,423.97
2017-01-02T07:45:10.660Z,423.81
2017-01-02T07:46:10.549Z,422.09
2017-01-02T07:47:10.694Z,423.18
2017-01-02T07:48:10.519Z,421.55
2017-01-02T07:49:10.573Z,423.51
2017-01-02T07:50:10.552Z,426.17
2017-01-02T07:51:10.661Z,426.49
2017-01-02T07:52:10.608Z,428.2
2017-01-02T07:53:10.534Z,425.87
2017-01-02T07:54:10.560Z,426.38
2017-01-02T07:55:10.636Z,427.72
2017-01-02T07:56:10.519Z,427.72
2017-01-02T07:57:10.650Z,428.14
2017-01-02T07:58:10.559Z,429.67
2017-01-02T07:59:10.720Z,429.07
2017-01-02T08:00:10.548Z,429.09
2017-01-02T08:01:10.659Z,429.78
2017-01-02T08:02:10.577Z,432.76
2017-01-02T08:03:10.559Z,430.25
2017-01-02T08:04:10.559Z,433.93
2017-01-02T08:05:10.681Z,432.19
2017-01-02T08:06:10.541Z,433.54
2017-01-02T08:07:10.800Z,435.2
2017-01-02T08:08:10.561Z,431.34
2017-01-02T08:09:10.697Z,433.05
2017-01-02T08:10:10.555Z,432.63
2017-01-02T08:11:10.723Z,433.95
2017-01-02T08:12:10.608Z,433.77
2017-01-02T08:13:10.728Z,435.53
2017-01-02T08:14:10.682Z,437.32
2017-01-02T08:15:10.611Z,432.79
2017-01-02T08:16:10.575Z,434.96
2017-01-02T08:17:10.704Z,435.55
2017-01-02T08:18:10.563Z,435.53
2017-01-02T08:19:10.708Z,437.9
2017-01-02T08:20:10.576Z,438.02
2017-01-02T08:21:10.708Z,437.87
2017-01-02T08:22:10.696Z,437.83
2017-01-02T08:23:10.687Z,438.84
2017-01-02T08:24:10.605Z,438.01
2017-01-02T08:25:10.706Z,442.46
2017-01-02T08:26:10.599Z,443.73
2017-01-02T08:27:10.677Z,445.26
2017-01-02T08:28:10.587Z,441.71
2017-01-02T08:29:10.612Z,444.66
2017-01-02T08:30:10.632Z,443.4
2017-01-02T08:31:10.691Z,445.93
2017-01-02T08:32:10.803Z,445.95
2017-01-02T08:33:10.711Z,448.91
2017-01-02T08:34:10.621Z,448.29
2017-01-02T08:35:10.652Z,446.78
2017-01-02T08:36:10.622Z,450.01
2017-01-02T08:37:10.810Z,450.68
2017-01-02T08:38:10.637Z,452.79
2017-01-02T08:39:10.607Z,449.82
2017-01-02T08:40:10.596Z,451.54
2017-01-02T08:41:10.686Z,453.07
2017-01-02T08:42:10.719Z,456.43
2017-01-02T08:43:10.622Z,457.89
2017-01-02T08:44:10.575Z,465.9
2017-01-02T08:45:10.665Z,463.4
2017-01-02T08:46:10.619Z,461.31
2017-01-02T08:47:10.721Z,460.23
2017-01-02T08:48:10.593Z,461.79
2017-01-02T08:49:11.376Z,466.76
2017-01-02T08:50:10.604Z,470.39
2017-01-02T08:51:10.647Z,472.43
2017-01-02T08:52:10.653Z,471.77
2017-01-02T08:53:10.787Z,469.28
2017-01-02T08:54:10.617Z,466.16
2017-01-02T08:55:10.675Z,462.41
2017-01-02T08:56:10.603Z,461.44
2017-01-02T08:57:10.683Z,471.29
2017-01-02T08:58:10.606Z,483.47
2017-01-02T08:59:10.745Z,481.55
2017-01-02T09:00:10.629Z,479.05
2017-01-02T09:01:10.746Z,475.13
2017-01-02T09:02:10.705Z,481.46
2017-01-02T09:03:10.746Z,484.93
2017-01-02T09:04:10.615Z,484.9
2017-01-02T09:05:10.776Z,485.13
2017-01-02T09:06:10.634Z,484.89
2017-01-02T09:07:10.852Z,488.34
2017-01-02T09:08:10.632Z,484.02
2017-01-02T09:09:12.011Z,482.23
2017-01-02T09:10:10.611Z,481.83
2017-01-02T09:11:10.674Z,482.67
2017-01-02T09:12:10.748Z,486.46
2017-01-02T09:13:10.698Z,492.66
2017-01-02T09:14:10.652Z,494.68
2017-01-02T09:15:10.745Z,493.92
2017-01-02T09:16:10.632Z,490.69
2017-01-02T09:17:10.717Z,493.97
2017-01-02T09:18:10.652Z,504.56
2017-01-02T09:19:10.711Z,514.57
2017-01-02T09:20:10.635Z,509.72
2017-01-02T09:21:10.664Z,512.08
2017-01-02T09:22:10.673Z,510.43
2017-01-02T09:23:10.665Z,512.13
2017-01-02T09:24:10.730Z,512.55
2017-01-02T09:25:10.745Z,522.42
2017-01-02T09:26:10.662Z,523.21
2017-01-02T09:27:10.696Z,523.82
2017-01-02T09:28:10.663Z,538.27
2017-01-02T09:29:10.667Z,548.37
2017-01-02T09:30:10.656Z,558.87
2017-01-02T09:31:10.732Z,547.94
2017-01-02T09:32:10.688Z,543.66
2017-01-02T09:33:10.752Z,546.22
2017-01-02T09:34:10.650Z,559.74
2017-01-02T09:35:10.652Z,563.8
2017-01-02T09:36:10.740Z,561.82
2017-01-02T09:37:10.694Z,569.4
2017-01-02T09:38:10.756Z,579.29
2017-01-02T09:39:11.642Z,577.64
2017-01-02T09:40:10.673Z,583.25
2017-01-02T09:41:10.706Z,576.83
2017-01-02T09:42:10.681Z,576.69
2017-01-02T09:43:10.821Z,576.33
2017-01-02T09:44:10.646Z,589.61
2017-01-02T09:45:10.763Z,590.77
2017-01-02T09:46:10.784Z,588.86
2017-01-02T09:47:10.725Z,590.87
2017-01-02T09:48:10.665Z,594.75
2017-01-02T09:49:10.795Z,598.44
2017-01-02T09:50:10.667Z,599.63
2017-01-02T09:51:10.744Z,603.28
2017-01-02T09:52:10.772Z,627.12
2017-01-02T09:53:10.775Z,618.13
2017-01-02T09:54:10.726Z,615.52
2017-01-02T09:55:10.757Z,606.3
2017-01-02T09:56:10.680Z,602.81
2017-01-02T09:57:11.144Z,605.8
2017-01-02T09:58:10.685Z,596.73
2017-01-02T09:59:10.714Z,608.99
2017-01-02T10:00:10.783Z,623.78
2017-01-02T10:01:10.692Z,628.41
2017-01-02T10:02:10.783Z,628.07
2017-01-02T10:03:10.732Z,633.07
2017-01-02T10:04:10.735Z,624.57
2017-01-02T10:05:10.829Z,632.01
2017-01-02T10:06:10.702Z,638.91
2017-01-02T10:07:10.883Z,638.88
2017-01-02T10:08:10.709Z,646.62
2017-01-02T10:09:10.823Z,645.09
2017-01-02T10:10:10.757Z,649.83
2017-01-02T10:11:10.734Z,657.79
2017-01-02T10:12:11.172Z,662.99
2017-01-02T10:13:10.748Z,668.56
2017-01-02T10:14:10.973Z,675.44
2017-01-02T10:15:10.745Z,683.39
2017-01-02T10:16:10.702Z,679.77
2017-01-02T10:17:10.802Z,676.24
2017-01-02T10:18:10.758Z,666.45
2017-01-02T10:19:10.722Z,671.6
2017-01-02T10:20:10.715Z,677.22
2017-01-02T10:21:10.833Z,678.97
2017-01-02T10:22:10.754Z,672.61
2017-01-02T10:23:10.755Z,676.49
2017-01-02T10:24:10.732Z,671.19
2017-01-02T10:25:10.799Z,680.02
2017-01-02T10:26:10.754Z,680.34
2017-01-02T10:27:10.880Z,675.36
2017-01-02T10:28:10.722Z,672.01
2017-01-02T10:29:10.832Z,676.39
2017-01-02T10:30:10.730Z,670.23
2017-01-02T10:31:10.770Z,660
2017-01-02T10:32:10.802Z,662.86
2017-01-02T10:33:10.879Z,659.37
2017-01-02T10:34:10.754Z,671.7
2017-01-02T10:35:10.789Z,671.73
2017-01-02T10:36:10.990Z,664.42
2017-01-02T10:37:10.791Z,677.72
2017-01-02T10:38:10.759Z,682.83
2017-01-02T10:39:10.855Z,673.87
2017-01-02T10:40:10.760Z,676.34
2017-01-02T10:41:10.762Z,682.85
2017-01-02T10:42:10.774Z,688.63
2017-01-02T10:43:10.849Z,675.8
2017-01-02T10:44:10.753Z,680.01
2017-01-02T10:45:10.740Z,674.68
2017-01-02T10:46:10.731Z,681.19
2017-01-02T10:47:10.772Z,679.47
2017-01-02T10:48:10.735Z,679.83
2017-01-02T10:49:10.815Z,680.91
2017-01-02T10:50:10.743Z,678.7
2017-01-02T10:51:10.834Z,682.18
2017-01-02T10:52:10.779Z,682.76
2017-01-02T10:53:10.897Z,671.93
2017-01-02T10:54:10.776Z,679.59
2017-01-02T10:55:10.868Z,677.61
2017-01-02T10:56:10.771Z,676.41
2017-01-02T10:57:10.897Z,672.64
2017-01-02T10:58:10.792Z,672.64
2017-01-02T10:59:10.800Z,661.83
2017-01-02T11:00:10.818Z,659.37
2017-01-02T11:01:10.809Z,659.7
2017-01-02T11:02:10.832Z,659.11
2017-01-02T11:03:10.790Z,652.47
2017-01-02T11:04:10.850Z,632.69
2017-01-02T11:05:10.829Z,629.7
2017-01-02T11:06:10.775Z,617.47
2017-01-02T11:07:10.858Z,611.31
2017-01-02T11:08:10.779Z,607.11
2017-01-02T11:09:10.960Z,608.03
2017-01-02T11:10:10.929Z,601.29
2017-01-02T11:11:11.081Z,599.59
2017-01-02T11:12:10.913Z,595.85
2017-01-02T11:13:10.824Z,589.32
2017-01-02T11:14:10.831Z,587.1
2017-01-02T11:15:10.839Z,582.91
2017-01-02T11:16:10.780Z,575.01
2017-01-02T11:17:10.852Z,573.47
2017-01-02T11:18:10.754Z,583.55
2017-01-02T11:19:10.925Z,599.94
2017-01-02T11:20:10.801Z,605.46
2017-01-02T11:21:10.834Z,622.34
2017-01-02T11:22:11.007Z,635.69
2017-01-02T11:23:10.824Z,648.69
2017-01-02T11:24:10.821Z,662.16
2017-01-02T11:25:10.880Z,675.57
2017-01-02T11:26:10.802Z,686.81
2017-01-02T11:27:10.947Z,698.14
2017-01-02T11:28:10.818Z,699.92
2017-01-02T11:29:11.004Z,701.19
2017-01-02T11:30:10.806Z,705.25
2017-01-02T11:31:10.815Z,709.18
2017-01-02T11:32:10.838Z,711.21
2017-01-02T11:33:10.929Z,722.23
2017-01-02T11:34:10.808Z,725.85
2017-01-02T11:35:10.893Z,735.89
2017-01-02T11:36:10.999Z,738.1
2017-01-02T11:37:10.847Z,734.02
2017-01-02T11:38:10.838Z,738.01
2017-01-02T11:39:11.039Z,737.98
2017-01-02T11:40:27.670Z,740.41
2017-01-02T11:41:27.729Z,739.21
2017-01-02T11:42:27.692Z,737.56
2017-01-02T11:43:27.637Z,746.49
2017-01-02T11:44:27.625Z,741.87
2017-01-02T11:45:27.633Z,746.53
2017-01-02T11:46:27.691Z,749
2017-01-02T11:47:27.669Z,754.67
2017-01-02T11:48:27.657Z,752.89
2017-01-02T11:49:27.665Z,762.47
2017-01-02T11:50:27.678Z,755.02
2017-01-02T11:51:27.643Z,755.82
2017-01-02T11:52:27.692Z,759.99
2017-01-02T11:53:27.698Z,757.75
2017-01-02T11:54:27.697Z,759.24
2017-01-02T11:55:27.708Z,762.46
2017-01-02T11:56:27.796Z,760.86
2017-01-02T11:57:27.714Z,763.06
2017-01-02T11:58:27.655Z,760.99
2017-01-02T11:59:27.675Z,761.45
2017-01-02T12:00:27.685Z,758.07
2017-01-02T12:01:27.646Z,758.3
2017-01-02T12:02:27.683Z,759.16
2017-01-02T12:03:27.744Z,770.79
2017-01-02T12:04:27.632Z,775.02
2017-01-02T12:05:27.774Z,784.7
2017-01-02T12:06:27.686Z,789.97
2017-01-02T12:07:27.645Z,793.66
2017-01-02T12:08:27.844Z,795.7
2017-01-02T12:09:27.674Z,803.75
2017-01-02T12:10:27.647Z,811.2
2017-01-02T12:11:27.823Z,813.49
2017-01-02T12:12:27.703Z,803.2
2017-01-02T12:13:27.656Z,801.58
2017-01-02T12:14:27.651Z,804.35
2017-01-02T12:15:27.744Z,803.88
2017-01-02T12:16:27.767Z,807.59
2017-01-02T12:17:27.775Z,803.26
2017-01-02T12:18:27.663Z,821.37
2017-01-02T12:19:27.648Z,832.46
2017-01-02T12:20:27.653Z,832.33
2017-01-02T12:21:27.641Z,836.58
2017-01-02T12:22:27.704Z,834
2017-01-02T12:23:27.647Z,836.61
2017-01-02T12:24:27.664Z,833.39
2017-01-02T12:25:27.747Z,837.84
2017-01-02T12:26:27.684Z,833.45
2017-01-02T12:27:27.663Z,833.89
2017-01-02T12:28:27.667Z,842.7
2017-01-02T12:29:27.664Z,840.74
2017-01-02T12:30:27.654Z,829.69
2017-01-02T12:31:27.652Z,837.17
2017-01-02T12:32:27.681Z,831.12
2017-01-02T12:33:27.682Z,829.38
2017-01-02T12:34:27.716Z,840.14
2017-01-02T12:35:27.763Z,842
2017-01-02T12:36:27.662Z,835.47